Time;durP1;ratioP1;P1;durP2;ratioP2;P2;SDS_P1;SDS_P2;PMS_P1;PMS_P2;Temp;Humidity;BMP_temperature;BMP_pressure;BME280_temperature;BME280_humidity;BME280_pressure;Samples;Min_cycle;Max_cycle;Signal;HPM_P1;HPM_P2
2022/02/14 00:00:17;;;;;;;5.33;2.60;;;;;;;;;;5035742;28;20514;-79
2022/02/14 00:02:44;;;;;;;3.80;2.57;;;;;;;;;;5036063;28;20924;-79
2022/02/14 00:05:10;;;;;;;6.10;3.50;;;;;;;;;;5034976;28;20775;-80
2022/02/14 00:07:37;;;;;;;3.60;2.73;;;;;;;;;;5035638;28;20464;-80
2022/02/14 00:10:03;;;;;;;3.70;2.40;;;;;;;;;;5035356;28;20415;-80
2022/02/14 00:12:29;;;;;;;5.50;3.00;;;;;;;;;;5038385;28;20440;-80
2022/02/14 00:14:55;;;;;;;5.80;3.07;;;;;;;;;;5040482;28;20956;-79
2022/02/14 00:17:22;;;;;;;4.33;2.80;;;;;;;;;;5041416;28;20414;-79
2022/02/14 00:19:50;;;;;;;4.87;2.70;;;;;;;;;;5039877;28;20402;-79
2022/02/14 00:22:21;;;;;;;3.23;2.40;;;;;;;;;;5039636;28;20488;-79
2022/02/14 00:24:51;;;;;;;4.30;3.23;;;;;;;;;;5040625;28;20383;-80
2022/02/14 00:27:17;;;;;;;7.20;2.50;;;;;;;;;;5039223;28;20934;-80
2022/02/14 00:29:43;;;;;;;5.20;2.87;;;;;;;;;;5040058;28;20399;-80
2022/02/14 00:32:09;;;;;;;4.13;2.57;;;;;;;;;;5038798;28;20438;-80
2022/02/14 00:34:35;;;;;;;6.30;3.17;;;;;;;;;;5040376;28;20409;-79
2022/02/14 00:37:02;;;;;;;4.93;2.43;;;;;;;;;;5040120;28;20402;-80
2022/02/14 00:39:28;;;;;;;5.40;2.83;;;;;;;;;;5039192;28;20450;-79
2022/02/14 00:41:55;;;;;;;3.60;2.50;;;;;;;;;;5038380;28;20511;-79
2022/02/14 00:44:21;;;;;;;3.67;2.60;;;;;;;;;;5044429;28;20434;-80
2022/02/14 00:46:47;;;;;;;4.23;2.70;;;;;;;;;;5042766;28;20478;-80
2022/02/14 00:49:13;;;;;;;6.57;2.47;;;;;;;;;;5041605;28;20428;-79
2022/02/14 00:51:39;;;;;;;4.37;2.60;;;;;;;;;;5041267;28;20425;-80
2022/02/14 00:54:05;;;;;;;3.77;2.10;;;;;;;;;;5040707;28;20478;-80
2022/02/14 00:56:31;;;;;;;6.30;2.90;;;;;;;;;;5039239;28;20426;-80
2022/02/14 00:58:57;;;;;;;2.90;2.23;;;;;;;;;;5052041;28;20415;-79
2022/02/14 01:01:23;;;;;;;6.53;2.40;;;;;;;;;;5053389;28;20422;-79
2022/02/14 01:03:49;;;;;;;4.90;2.50;;;;;;;;;;5055882;28;20426;-80
2022/02/14 01:06:15;;;;;;;4.60;2.37;;;;;;;;;;5052542;28;20403;-80
2022/02/14 01:08:42;;;;;;;4.53;2.33;;;;;;;;;;5042610;28;20407;-80
2022/02/14 01:11:08;;;;;;;4.10;2.57;;;;;;;;;;5044064;28;20422;-80
2022/02/14 01:13:34;;;;;;;5.17;3.03;;;;;;;;;;5044607;28;20414;-80
2022/02/14 01:16:00;;;;;;;2.77;2.30;;;;;;;;;;5043192;28;20403;-80
2022/02/14 01:18:26;;;;;;;2.97;1.90;;;;;;;;;;5042516;28;20407;-80
2022/02/14 01:20:52;;;;;;;4.10;2.40;;;;;;;;;;5039981;28;20485;-80
2022/02/14 01:23:18;;;;;;;3.40;1.77;;;;;;;;;;5038940;28;20442;-80
2022/02/14 01:25:44;;;;;;;4.50;2.20;;;;;;;;;;5037723;28;20410;-80
2022/02/14 01:28:11;;;;;;;5.10;2.77;;;;;;;;;;5039255;28;20402;-80
2022/02/14 01:30:37;;;;;;;3.97;2.23;;;;;;;;;;5038790;28;20451;-80
2022/02/14 01:33:03;;;;;;;2.90;1.80;;;;;;;;;;5039235;28;20413;-80
2022/02/14 01:35:29;;;;;;;3.10;1.97;;;;;;;;;;5037348;28;20415;-80
2022/02/14 01:37:55;;;;;;;2.40;1.80;;;;;;;;;;5039108;28;20406;-79
2022/02/14 01:40:21;;;;;;;3.60;1.70;;;;;;;;;;5038254;28;20411;-80
2022/02/14 01:42:48;;;;;;;3.83;2.30;;;;;;;;;;5037467;28;20498;-80
2022/02/14 01:45:14;;;;;;;6.20;1.57;;;;;;;;;;5038786;28;20410;-80
2022/02/14 01:47:41;;;;;;;2.17;1.67;;;;;;;;;;5039361;28;20471;-79
2022/02/14 01:50:08;;;;;;;3.30;1.90;;;;;;;;;;5039131;28;20998;-80
2022/02/14 01:52:35;;;;;;;2.43;1.60;;;;;;;;;;5038230;28;20446;-80
2022/02/14 01:55:01;;;;;;;3.10;1.67;;;;;;;;;;5038161;28;20414;-80
2022/02/14 01:57:28;;;;;;;3.33;1.90;;;;;;;;;;5040190;28;20407;-80
2022/02/14 01:59:54;;;;;;;4.70;2.10;;;;;;;;;;5039457;28;20848;-79
2022/02/14 02:02:20;;;;;;;3.57;1.90;;;;;;;;;;5036583;28;20454;-79
2022/02/14 02:04:46;;;;;;;9.73;2.70;;;;;;;;;;5037487;28;20532;-79
2022/02/14 02:07:13;;;;;;;4.80;1.63;;;;;;;;;;5039069;28;20410;-80
2022/02/14 02:09:41;;;;;;;3.87;1.87;;;;;;;;;;5038695;28;20411;-80
2022/02/14 02:12:23;;;;;;;3.63;2.13;;;;;;;;;;5037546;28;20795;-80
2022/02/14 02:15:00;;;;;;;4.60;1.60;;;;;;;;;;5033434;28;20922;-79
2022/02/14 02:17:40;;;;;;;4.10;2.43;;;;;;;;;;5018171;28;20443;-80
2022/02/14 02:20:08;;;;;;;4.43;2.13;;;;;;;;;;5018254;28;20433;-80
2022/02/14 02:22:34;;;;;;;3.00;1.90;;;;;;;;;;5018277;28;21008;-79
2022/02/14 02:25:00;;;;;;;2.20;1.47;;;;;;;;;;5017091;28;20415;-79
2022/02/14 02:27:27;;;;;;;1.93;1.63;;;;;;;;;;5016367;28;20413;-78
2022/02/14 02:29:54;;;;;;;2.20;1.40;;;;;;;;;;5017132;28;20486;-79
2022/02/14 02:32:20;;;;;;;3.33;1.53;;;;;;;;;;5016462;28;20442;-79
2022/02/14 02:34:46;;;;;;;2.20;1.80;;;;;;;;;;5016637;28;20415;-79
2022/02/14 02:37:13;;;;;;;3.07;1.80;;;;;;;;;;5020525;28;20400;-79
2022/02/14 02:39:41;;;;;;;2.17;1.60;;;;;;;;;;5017725;28;20407;-80
2022/02/14 02:42:07;;;;;;;2.90;1.67;;;;;;;;;;5016411;28;20494;-80
2022/02/14 02:44:34;;;;;;;9.37;2.00;;;;;;;;;;5016535;28;20818;-79
2022/02/14 02:47:01;;;;;;;2.03;1.50;;;;;;;;;;5017626;28;20396;-80
2022/02/14 02:49:27;;;;;;;4.07;1.90;;;;;;;;;;5018988;28;20411;-80
2022/02/14 02:51:53;;;;;;;2.83;1.80;;;;;;;;;;5019036;28;20459;-80
2022/02/14 02:54:20;;;;;;;3.30;2.00;;;;;;;;;;5018380;28;20434;-80
2022/02/14 02:56:48;;;;;;;3.00;1.77;;;;;;;;;;5017461;28;20416;-79
2022/02/14 02:59:14;;;;;;;3.23;1.60;;;;;;;;;;5017797;28;20538;-80
2022/02/14 03:01:41;;;;;;;2.33;1.33;;;;;;;;;;5017302;28;20419;-80
2022/02/14 03:04:07;;;;;;;3.57;1.77;;;;;;;;;;5017544;28;20458;-80
2022/02/14 03:06:33;;;;;;;1.73;1.43;;;;;;;;;;5016835;28;20415;-80
2022/02/14 03:09:00;;;;;;;2.93;2.03;;;;;;;;;;5017870;28;20550;-80
2022/02/14 03:11:27;;;;;;;4.13;1.97;;;;;;;;;;5017040;28;20432;-80
2022/02/14 03:13:54;;;;;;;1.87;1.37;;;;;;;;;;5018340;28;20471;-78
2022/02/14 03:16:20;;;;;;;2.40;1.90;;;;;;;;;;5017737;28;20499;-78
2022/02/14 03:18:47;;;;;;;2.27;1.50;;;;;;;;;;5017790;28;20840;-78
2022/02/14 03:21:14;;;;;;;4.43;1.90;;;;;;;;;;5017534;28;20459;-79
2022/02/14 03:23:40;;;;;;;2.50;1.80;;;;;;;;;;5021655;28;20447;-79
2022/02/14 03:26:07;;;;;;;2.40;1.47;;;;;;;;;;5020556;28;20415;-79
2022/02/14 03:28:34;;;;;;;3.43;1.87;;;;;;;;;;5022012;28;20411;-80
2022/02/14 03:31:00;;;;;;;4.67;1.67;;;;;;;;;;5019382;28;20940;-80
2022/02/14 03:33:27;;;;;;;2.93;1.70;;;;;;;;;;5028168;28;20399;-79
2022/02/14 03:35:53;;;;;;;2.80;1.60;;;;;;;;;;5030251;28;20481;-79
2022/02/14 03:38:19;;;;;;;2.47;1.70;;;;;;;;;;5021532;28;20414;-80
2022/02/14 03:40:45;;;;;;;4.07;1.63;;;;;;;;;;5018744;28;20416;-80
2022/02/14 03:43:11;;;;;;;2.00;1.60;;;;;;;;;;5018515;28;20990;-79
2022/02/14 03:45:39;;;;;;;2.70;1.57;;;;;;;;;;5026190;28;20456;-80
2022/02/14 03:48:05;;;;;;;2.30;1.67;;;;;;;;;;5038047;28;20782;-78
2022/02/14 03:50:31;;;;;;;5.20;1.63;;;;;;;;;;5040661;28;20450;-79
2022/02/14 03:52:58;;;;;;;3.00;1.57;;;;;;;;;;5041525;28;20545;-80
2022/02/14 03:55:24;;;;;;;2.60;1.93;;;;;;;;;;5040711;28;20421;-80
2022/02/14 03:57:51;;;;;;;4.50;2.00;;;;;;;;;;5042010;28;20434;-80
2022/02/14 04:00:18;;;;;;;2.30;1.67;;;;;;;;;;5040222;28;20449;-80
2022/02/14 04:02:44;;;;;;;2.10;1.53;;;;;;;;;;5041257;28;20457;-79
2022/02/14 04:05:11;;;;;;;2.20;1.77;;;;;;;;;;5041544;28;20921;-80
2022/02/14 04:07:37;;;;;;;2.50;1.63;;;;;;;;;;5041853;28;20406;-80
2022/02/14 04:10:05;;;;;;;2.70;1.60;;;;;;;;;;5041388;28;20406;-80
2022/02/14 04:12:31;;;;;;;2.70;1.43;;;;;;;;;;5042256;28;20957;-80
2022/02/14 04:14:57;;;;;;;2.30;1.50;;;;;;;;;;5045503;28;20422;-80
2022/02/14 04:17:24;;;;;;;3.33;1.73;;;;;;;;;;5044869;28;20402;-80
2022/02/14 04:19:50;;;;;;;3.00;2.00;;;;;;;;;;5040381;28;20417;-80
2022/02/14 04:22:16;;;;;;;2.47;1.73;;;;;;;;;;5041096;28;20430;-80
2022/02/14 04:24:42;;;;;;;2.10;1.40;;;;;;;;;;5039573;28;20402;-80
2022/02/14 04:27:08;;;;;;;2.73;1.60;;;;;;;;;;5040155;28;20399;-80
2022/02/14 04:29:34;;;;;;;2.23;1.53;;;;;;;;;;5037524;28;20452;-80
2022/02/14 04:32:00;;;;;;;2.23;1.63;;;;;;;;;;5039916;28;20453;-80
2022/02/14 04:34:26;;;;;;;3.23;1.40;;;;;;;;;;5039261;28;20426;-80
2022/02/14 04:36:53;;;;;;;2.73;1.47;;;;;;;;;;5040287;28;20929;-80
2022/02/14 04:39:19;;;;;;;1.73;1.40;;;;;;;;;;5044036;28;20399;-80
2022/02/14 04:41:45;;;;;;;2.00;1.67;;;;;;;;;;5042216;28;20449;-80
2022/02/14 04:44:11;;;;;;;2.20;1.50;;;;;;;;;;5040293;28;20604;-80
2022/02/14 04:46:38;;;;;;;2.97;1.50;;;;;;;;;;5041513;28;20465;-80
2022/02/14 04:49:04;;;;;;;2.33;1.63;;;;;;;;;;5041638;28;20399;-79
2022/02/14 04:51:31;;;;;;;2.60;1.53;;;;;;;;;;5041271;28;20425;-80
2022/02/14 04:53:57;;;;;;;2.10;1.47;;;;;;;;;;5040790;28;20415;-80
2022/02/14 04:56:23;;;;;;;2.63;1.70;;;;;;;;;;5040970;28;20449;-80
2022/02/14 04:58:49;;;;;;;1.93;1.50;;;;;;;;;;5040247;28;20918;-79
2022/02/14 05:01:15;;;;;;;5.90;1.60;;;;;;;;;;5039523;28;20464;-79
2022/02/14 05:03:41;;;;;;;2.80;1.77;;;;;;;;;;5037898;28;20454;-79
2022/02/14 05:06:07;;;;;;;5.43;2.83;;;;;;;;;;5038695;28;20476;-79
2022/02/14 05:08:33;;;;;;;2.03;1.53;;;;;;;;;;5039216;28;20406;-79
2022/02/14 05:11:00;;;;;;;3.00;1.60;;;;;;;;;;5039822;28;20423;-80
2022/02/14 05:13:26;;;;;;;3.40;1.77;;;;;;;;;;5049737;28;20433;-79
2022/02/14 05:15:52;;;;;;;4.27;2.20;;;;;;;;;;5040838;28;20445;-80
2022/02/14 05:18:18;;;;;;;3.20;1.80;;;;;;;;;;5040703;28;20406;-79
2022/02/14 05:20:44;;;;;;;2.17;1.60;;;;;;;;;;5040629;28;20770;-79
2022/02/14 05:23:10;;;;;;;2.20;1.50;;;;;;;;;;5041846;28;20824;-79
2022/02/14 05:25:36;;;;;;;3.10;2.07;;;;;;;;;;5042536;28;20442;-79
2022/02/14 05:28:12;;;;;;;2.57;1.63;;;;;;;;;;5047773;28;20410;-79
2022/02/14 05:30:38;;;;;;;5.43;1.70;;;;;;;;;;5039150;28;20493;-79
2022/02/14 05:33:05;;;;;;;4.20;2.17;;;;;;;;;;5038468;28;20398;-79
2022/02/14 05:35:31;;;;;;;3.37;1.93;;;;;;;;;;5041168;28;20489;-79
2022/02/14 05:37:57;;;;;;;4.50;1.90;;;;;;;;;;5055066;28;20394;-80
2022/02/14 05:40:24;;;;;;;2.17;1.70;;;;;;;;;;5051469;28;20787;-79
2022/02/14 05:42:50;;;;;;;3.77;2.20;;;;;;;;;;5040159;23;20530;-78
2022/02/14 05:45:16;;;;;;;2.40;1.53;;;;;;;;;;5016622;28;20414;-79
2022/02/14 05:47:42;;;;;;;4.90;1.53;;;;;;;;;;5019089;28;20388;-78
2022/02/14 05:50:09;;;;;;;4.23;1.90;;;;;;;;;;5019198;28;20396;-78
2022/02/14 05:52:35;;;;;;;5.10;2.20;;;;;;;;;;5019724;28;20439;-79
2022/02/14 05:55:01;;;;;;;2.30;1.47;;;;;;;;;;5019914;28;20391;-78
2022/02/14 05:57:28;;;;;;;3.40;2.13;;;;;;;;;;5016387;28;20415;-77
2022/02/14 05:59:54;;;;;;;6.17;1.93;;;;;;;;;;5017603;28;20397;-78
2022/02/14 06:02:20;;;;;;;2.50;1.67;;;;;;;;;;5016068;28;20517;-77
2022/02/14 06:04:47;;;;;;;3.10;1.60;;;;;;;;;;5017103;28;20474;-78
2022/02/14 06:07:13;;;;;;;2.47;1.53;;;;;;;;;;5016884;28;20461;-78
2022/02/14 06:09:39;;;;;;;4.80;2.17;;;;;;;;;;5016155;28;20478;-78
2022/02/14 06:12:05;;;;;;;3.63;1.97;;;;;;;;;;5016990;28;20466;-78
2022/02/14 06:14:32;;;;;;;6.23;2.27;;;;;;;;;;5016574;28;20395;-78
2022/02/14 06:16:58;;;;;;;3.67;2.57;;;;;;;;;;5023846;28;20407;-78
2022/02/14 06:19:24;;;;;;;2.73;2.13;;;;;;;;;;5025477;28;20395;-78
2022/02/14 06:21:50;;;;;;;3.47;2.17;;;;;;;;;;5024407;28;20412;-78
2022/02/14 06:24:17;;;;;;;2.60;1.83;;;;;;;;;;5017698;28;20971;-78
2022/02/14 06:26:43;;;;;;;2.70;1.70;;;;;;;;;;5017250;28;20493;-77
2022/02/14 06:29:09;;;;;;;2.90;1.70;;;;;;;;;;5018890;28;20423;-78
2022/02/14 06:31:35;;;;;;;4.33;1.53;;;;;;;;;;5017224;28;20451;-78
2022/02/14 06:34:02;;;;;;;3.63;1.93;;;;;;;;;;5015431;28;20412;-78
2022/02/14 06:36:28;;;;;;;5.50;2.50;;;;;;;;;;5017275;28;20403;-77
2022/02/14 06:38:55;;;;;;;7.40;2.20;;;;;;;;;;5018809;28;20427;-78
2022/02/14 06:41:22;;;;;;;11.23;4.47;;;;;;;;;;5018106;28;20441;-78
2022/02/14 06:43:48;;;;;;;19.07;3.37;;;;;;;;;;5018323;28;21023;-78
2022/02/14 06:46:14;;;;;;;3.93;2.20;;;;;;;;;;5015839;28;20900;-80
2022/02/14 06:48:40;;;;;;;4.70;2.27;;;;;;;;;;5015710;28;20783;-78
2022/02/14 06:51:06;;;;;;;4.37;2.80;;;;;;;;;;5016587;28;20442;-79
2022/02/14 06:53:32;;;;;;;4.17;2.47;;;;;;;;;;5017286;28;20446;-78
2022/02/14 06:56:00;;;;;;;7.83;2.10;;;;;;;;;;5018092;28;20403;-79
2022/02/14 06:58:26;;;;;;;3.27;2.40;;;;;;;;;;5018240;28;20884;-78
2022/02/14 07:00:52;;;;;;;4.63;2.30;;;;;;;;;;5019182;28;20411;-79
2022/02/14 07:03:19;;;;;;;3.10;2.27;;;;;;;;;;5019567;28;20454;-79
2022/02/14 07:05:45;;;;;;;5.80;2.67;;;;;;;;;;5019045;28;20461;-79
2022/02/14 07:08:11;;;;;;;6.70;2.70;;;;;;;;;;5018849;28;20406;-79
2022/02/14 07:10:37;;;;;;;14.73;7.30;;;;;;;;;;5013428;28;20431;-79
2022/02/14 07:13:03;;;;;;;67.20;30.73;;;;;;;;;;5016771;28;20443;-79
2022/02/14 07:15:30;;;;;;;11.67;8.23;;;;;;;;;;5012246;28;20444;-79
2022/02/14 07:17:56;;;;;;;6.00;2.57;;;;;;;;;;5019227;28;20423;-79
2022/02/14 07:20:22;;;;;;;5.20;3.87;;;;;;;;;;5016543;28;21002;-77
2022/02/14 07:22:49;;;;;;;4.20;2.80;;;;;;;;;;5025671;28;20504;-79
2022/02/14 07:25:16;;;;;;;4.63;2.40;;;;;;;;;;5023241;28;20420;-80
2022/02/14 07:27:42;;;;;;;4.80;2.63;;;;;;;;;;5023176;28;20473;-79
2022/02/14 07:30:10;;;;;;;5.07;2.47;;;;;;;;;;5020704;28;20435;-79
2022/02/14 07:32:36;;;;;;;4.00;2.00;;;;;;;;;;5022945;28;20534;-80
2022/02/14 07:35:02;;;;;;;9.10;2.57;;;;;;;;;;5031891;28;20415;-78
2022/02/14 07:37:29;;;;;;;4.80;2.00;;;;;;;;;;5030442;28;20423;-78
2022/02/14 07:39:55;;;;;;;2.97;1.90;;;;;;;;;;5019000;28;20946;-78
2022/02/14 07:42:21;;;;;;;2.80;2.20;;;;;;;;;;5009303;28;20574;-79
2022/02/14 07:44:48;;;;;;;3.03;2.00;;;;;;;;;;5019846;28;20915;-77
2022/02/14 07:47:14;;;;;;;9.03;3.07;;;;;;;;;;5014057;28;20441;-78
2022/02/14 07:49:40;;;;;;;3.30;2.00;;;;;;;;;;5016313;28;20934;-77
2022/02/14 07:52:07;;;;;;;3.63;2.13;;;;;;;;;;5017414;28;20423;-78
2022/02/14 07:54:33;;;;;;;4.60;2.30;;;;;;;;;;5018378;28;20419;-79
2022/02/14 07:56:59;;;;;;;3.93;2.27;;;;;;;;;;5023566;28;20463;-79
2022/02/14 07:59:25;;;;;;;3.63;2.30;;;;;;;;;;5022316;28;20419;-79
2022/02/14 08:01:52;;;;;;;9.47;2.30;;;;;;;;;;5022236;28;20455;-79
2022/02/14 08:04:19;;;;;;;3.60;2.00;;;;;;;;;;5023236;28;20985;-78
2022/02/14 08:06:46;;;;;;;5.67;2.40;;;;;;;;;;5021411;28;20455;-79
2022/02/14 08:09:12;;;;;;;6.37;2.50;;;;;;;;;;5022939;28;20423;-78
2022/02/14 08:11:38;;;;;;;5.00;2.47;;;;;;;;;;5021242;28;20776;-78
2022/02/14 08:14:04;;;;;;;4.33;1.90;;;;;;;;;;5020009;28;20168;-79
2022/02/14 08:16:33;;;;;;;7.00;2.80;;;;;;;;;;5031471;28;20458;-77
2022/02/14 08:19:02;;;;;;;4.30;2.37;;;;;;;;;;5021959;28;20434;-78
2022/02/14 08:21:31;;;;;;;2.83;2.00;;;;;;;;;;5019694;28;20529;-78
2022/02/14 08:23:58;;;;;;;8.93;2.70;;;;;;;;;;5013995;28;20459;-78
2022/02/14 08:26:24;;;;;;;4.50;2.13;;;;;;;;;;5015110;28;20423;-77
2022/02/14 08:28:51;;;;;;;4.05;2.30;;;;;;;;;;5016427;28;20415;-78
2022/02/14 08:31:17;;;;;;;3.13;2.40;;;;;;;;;;5014324;28;20235;-79
2022/02/14 08:33:43;;;;;;;7.30;1.93;;;;;;;;;;5013446;28;20518;-78
2022/02/14 08:36:10;;;;;;;5.63;2.43;;;;;;;;;;5016046;28;20696;-77
2022/02/14 08:38:37;;;;;;;3.23;2.10;;;;;;;;;;5013598;28;20515;-80
2022/02/14 08:41:04;;;;;;;4.60;2.10;;;;;;;;;;5017231;28;20434;-79
2022/02/14 08:43:30;;;;;;;2.27;1.70;;;;;;;;;;5017823;28;20468;-79
2022/02/14 08:45:56;;;;;;;2.70;2.07;;;;;;;;;;5017182;28;20473;-79
2022/02/14 08:48:22;;;;;;;3.57;1.97;;;;;;;;;;5017217;28;20517;-80
2022/02/14 08:50:49;;;;;;;12.53;3.00;;;;;;;;;;5017344;28;21227;-78
2022/02/14 08:53:17;;;;;;;2.90;1.90;;;;;;;;;;5016969;28;20518;-77
2022/02/14 08:55:43;;;;;;;5.70;2.30;;;;;;;;;;5016196;28;20447;-78
2022/02/14 08:58:09;;;;;;;3.37;2.30;;;;;;;;;;5008233;28;20446;-79
2022/02/14 09:00:35;;;;;;;3.80;2.37;;;;;;;;;;5017755;28;20423;-79
2022/02/14 09:03:01;;;;;;;6.50;2.10;;;;;;;;;;5014797;28;20459;-79
2022/02/14 09:05:28;;;;;;;4.27;2.63;;;;;;;;;;5011901;28;20936;-79
2022/02/14 09:07:54;;;;;;;3.80;2.50;;;;;;;;;;5015464;28;20415;-78
2022/02/14 09:10:21;;;;;;;4.90;2.50;;;;;;;;;;5021892;28;20476;-77
2022/02/14 09:12:47;;;;;;;7.43;2.20;;;;;;;;;;5026729;28;20808;-78
2022/02/14 09:15:14;;;;;;;3.70;2.20;;;;;;;;;;5021277;28;20486;-77
2022/02/14 09:17:40;;;;;;;4.30;2.40;;;;;;;;;;5016598;28;20927;-78
2022/02/14 09:20:06;;;;;;;7.60;2.70;;;;;;;;;;5009601;28;20424;-77
2022/02/14 09:22:33;;;;;;;3.67;2.50;;;;;;;;;;5014002;28;20463;-78
2022/02/14 09:24:59;;;;;;;8.83;2.70;;;;;;;;;;5019618;28;20499;-79
2022/02/14 09:27:25;;;;;;;3.87;2.47;;;;;;;;;;5016683;28;20435;-79
2022/02/14 09:29:51;;;;;;;6.03;2.50;;;;;;;;;;5027053;28;20843;-77
2022/02/14 09:32:17;;;;;;;2.60;2.00;;;;;;;;;;5017910;28;20443;-78
2022/02/14 09:34:44;;;;;;;4.53;2.20;;;;;;;;;;5027534;28;20431;-78
2022/02/14 09:37:15;;;;;;;3.17;2.23;;;;;;;;;;5026222;28;20833;-78
2022/02/14 09:39:41;;;;;;;4.67;2.70;;;;;;;;;;5023241;28;20427;-78
2022/02/14 09:42:08;;;;;;;2.80;1.73;;;;;;;;;;5021386;28;20534;-77
2022/02/14 09:44:35;;;;;;;6.17;2.13;;;;;;;;;;5025151;28;20415;-77
2022/02/14 09:47:02;;;;;;;2.73;2.00;;;;;;;;;;5031408;28;20408;-78
2022/02/14 09:49:29;;;;;;;4.43;2.27;;;;;;;;;;5027264;28;20424;-78
2022/02/14 09:51:56;;;;;;;4.00;1.90;;;;;;;;;;5026189;28;20427;-77
2022/02/14 09:54:22;;;;;;;4.13;2.90;;;;;;;;;;5017506;28;20481;-77
2022/02/14 09:56:49;;;;;;;7.30;3.00;;;;;;;;;;5014234;28;20481;-77
2022/02/14 09:59:16;;;;;;;5.17;2.00;;;;;;;;;;5009047;28;20424;-78
2022/02/14 10:01:42;;;;;;;4.50;2.30;;;;;;;;;;5016519;28;20455;-77
2022/02/14 10:04:08;;;;;;;5.33;2.40;;;;;;;;;;5013710;28;20478;-77
2022/02/14 10:06:39;;;;;;;2.60;1.77;;;;;;;;;;5008295;28;20422;-77
2022/02/14 10:09:10;;;;;;;6.90;1.90;;;;;;;;;;5015739;28;20427;-77
2022/02/14 10:11:39;;;;;;;4.13;2.37;;;;;;;;;;5015224;28;20835;-77
2022/02/14 10:14:17;;;;;;;6.23;2.40;;;;;;;;;;5012089;28;20415;-77
2022/02/14 10:16:59;;;;;;;5.77;2.60;;;;;;;;;;5022392;28;22117;-77
2022/02/14 10:19:25;;;;;;;3.73;1.97;;;;;;;;;;5008671;28;20415;-77
2022/02/14 10:21:51;;;;;;;4.53;3.10;;;;;;;;;;5011041;28;20446;-76
2022/02/14 10:24:18;;;;;;;5.23;2.40;;;;;;;;;;5015072;28;20447;-77
2022/02/14 10:26:49;;;;;;;3.50;1.90;;;;;;;;;;5007984;28;20514;-77
2022/02/14 10:29:21;;;;;;;8.20;2.37;;;;;;;;;;5013713;28;20807;-78
2022/02/14 10:31:47;;;;;;;6.80;2.33;;;;;;;;;;5012529;28;20509;-77
2022/02/14 10:34:13;;;;;;;2.87;1.50;;;;;;;;;;5015764;28;20463;-78
2022/02/14 10:36:41;;;;;;;3.30;2.00;;;;;;;;;;5019489;28;21278;-77
2022/02/14 10:39:07;;;;;;;2.30;1.60;;;;;;;;;;5012634;28;20680;-77
2022/02/14 10:41:33;;;;;;;3.10;1.70;;;;;;;;;;5014778;28;20450;-78
2022/02/14 10:44:07;;;;;;;6.73;2.50;;;;;;;;;;5017513;28;20459;-78
2022/02/14 10:46:33;;;;;;;3.47;1.80;;;;;;;;;;5013433;28;20420;-77
2022/02/14 10:49:01;;;;;;;5.37;1.50;;;;;;;;;;5014451;28;20435;-76
2022/02/14 10:51:27;;;;;;;4.00;1.93;;;;;;;;;;5017018;28;20470;-78
2022/02/14 10:53:54;;;;;;;3.43;1.90;;;;;;;;;;5018221;28;20419;-79
2022/02/14 10:56:22;;;;;;;3.43;1.93;;;;;;;;;;5007560;28;20427;-80
2022/02/14 10:58:49;;;;;;;6.40;2.10;;;;;;;;;;5014470;28;20485;-77
2022/02/14 11:01:16;;;;;;;7.73;2.00;;;;;;;;;;5013454;28;20438;-77
2022/02/14 11:03:44;;;;;;;5.23;2.30;;;;;;;;;;5009102;28;20456;-76
2022/02/14 11:06:13;;;;;;;3.50;2.03;;;;;;;;;;5012175;28;20431;-80
2022/02/14 11:08:41;;;;;;;6.93;2.10;;;;;;;;;;5007680;28;20424;-80
2022/02/14 11:11:13;;;;;;;3.00;1.50;;;;;;;;;;5013740;28;20423;-77
2022/02/14 11:13:39;;;;;;;4.87;1.60;;;;;;;;;;5008872;28;20411;-77
2022/02/14 11:16:06;;;;;;;3.70;1.60;;;;;;;;;;5012975;28;20427;-77
2022/02/14 11:18:38;;;;;;;2.93;1.73;;;;;;;;;;5014141;28;20513;-77
2022/02/14 11:21:05;;;;;;;6.60;1.93;;;;;;;;;;5020998;28;20515;-76
2022/02/14 11:23:35;;;;;;;5.83;2.20;;;;;;;;;;5013061;28;20466;-77
2022/02/14 11:26:13;;;;;;;3.53;2.20;;;;;;;;;;5014356;28;20469;-77
2022/02/14 11:29:08;;;;;;;3.50;1.63;;;;;;;;;;5005994;28;20435;-77
2022/02/14 11:31:35;;;;;;;6.70;1.80;;;;;;;;;;5006701;28;21003;-77
2022/02/14 11:34:03;;;;;;;3.37;2.20;;;;;;;;;;5007546;28;20795;-77
2022/02/14 11:36:30;;;;;;;4.73;1.50;;;;;;;;;;5008939;28;20436;-78
2022/02/14 11:38:59;;;;;;;5.40;2.40;;;;;;;;;;5012870;28;20508;-77
2022/02/14 11:41:28;;;;;;;3.37;1.83;;;;;;;;;;5003571;28;20432;-78
2022/02/14 11:43:55;;;;;;;5.70;2.03;;;;;;;;;;5018857;28;20783;-79
2022/02/14 11:46:28;;;;;;;3.07;1.73;;;;;;;;;;5018927;28;20415;-79
2022/02/14 11:49:00;;;;;;;3.27;1.77;;;;;;;;;;5013771;28;20434;-78
2022/02/14 11:51:35;;;;;;;8.27;2.20;;;;;;;;;;5021369;28;20419;-77
2022/02/14 11:54:04;;;;;;;10.00;2.17;;;;;;;;;;5012612;28;20411;-76
2022/02/14 11:56:32;;;;;;;3.83;1.73;;;;;;;;;;5013983;28;20411;-78
2022/02/14 11:59:00;;;;;;;5.00;2.93;;;;;;;;;;5010946;28;20835;-78
2022/02/14 12:01:28;;;;;;;2.67;1.60;;;;;;;;;;5016252;28;20427;-77
2022/02/14 12:03:58;;;;;;;3.07;2.03;;;;;;;;;;5015035;28;20533;-77
2022/02/14 12:06:24;;;;;;;3.27;1.70;;;;;;;;;;5021577;28;20416;-76
2022/02/14 12:09:06;;;;;;;3.67;1.70;;;;;;;;;;5026423;28;20419;-76
2022/02/14 12:11:46;;;;;;;3.53;1.60;;;;;;;;;;5019786;28;20457;-78
2022/02/14 12:14:20;;;;;;;5.83;1.90;;;;;;;;;;5035086;28;20406;-76
2022/02/14 12:22:42;;;;;;;7.30;1.77;;;;;;;;;;5016782;28;20461;-77
2022/02/14 12:25:09;;;;;;;4.97;3.20;;;;;;;;;;5014117;28;20510;-77
2022/02/14 12:27:36;;;;;;;6.57;2.47;;;;;;;;;;5015739;28;20415;-77
2022/02/14 12:30:21;;;;;;;4.93;1.73;;;;;;;;;;5013384;28;20430;-77
2022/02/14 12:32:50;;;;;;;3.00;1.90;;;;;;;;;;5013608;28;20578;-78
2022/02/14 12:35:36;;;;;;;2.80;1.60;;;;;;;;;;5009501;28;20937;-78
2022/02/14 12:38:03;;;;;;;2.83;1.60;;;;;;;;;;5014674;28;20427;-77
2022/02/14 12:40:44;;;;;;;2.97;1.80;;;;;;;;;;5017899;28;20426;-78
2022/02/14 12:43:10;;;;;;;3.43;1.50;;;;;;;;;;5014572;28;20466;-77
2022/02/14 12:45:37;;;;;;;5.78;2.10;;;;;;;;;;5016566;28;20435;-78
2022/02/14 12:48:03;;;;;;;3.10;1.73;;;;;;;;;;5018084;28;20438;-78
2022/02/14 12:50:36;;;;;;;3.23;1.80;;;;;;;;;;5015298;28;20172;-78
2022/02/14 12:53:09;;;;;;;6.27;3.00;;;;;;;;;;5017221;28;20967;-78
2022/02/14 12:55:35;;;;;;;6.03;2.40;;;;;;;;;;5018291;28;20532;-80
2022/02/14 12:58:01;;;;;;;3.10;1.93;;;;;;;;;;5017878;28;20752;-80
2022/02/14 13:00:31;;;;;;;5.60;2.00;;;;;;;;;;5007817;28;20479;-80
2022/02/14 13:02:58;;;;;;;4.63;1.80;;;;;;;;;;5011251;28;20459;-79
2022/02/14 13:05:25;;;;;;;3.73;1.90;;;;;;;;;;5027910;28;20419;-79
2022/02/14 13:07:51;;;;;;;3.23;1.60;;;;;;;;;;5017897;28;20415;-80
2022/02/14 13:10:20;;;;;;;4.70;2.00;;;;;;;;;;5017114;28;20756;-78
2022/02/14 13:12:46;;;;;;;7.80;2.20;;;;;;;;;;5016032;28;20452;-77
2022/02/14 13:15:16;;;;;;;24.87;3.33;;;;;;;;;;5012646;28;20423;-77
2022/02/14 13:17:48;;;;;;;18.30;2.30;;;;;;;;;;5017069;28;20431;-77
2022/02/14 13:20:14;;;;;;;7.73;2.20;;;;;;;;;;5015576;28;20993;-77
2022/02/14 13:22:41;;;;;;;2.97;1.80;;;;;;;;;;5030087;28;20470;-77
2022/02/14 13:25:19;;;;;;;4.50;2.17;;;;;;;;;;5015561;28;20440;-78
2022/02/14 13:27:46;;;;;;;3.60;2.23;;;;;;;;;;5017876;28;20427;-78
2022/02/14 13:30:13;;;;;;;6.10;2.23;;;;;;;;;;5015284;28;20435;-79
2022/02/14 13:32:41;;;;;;;5.40;2.13;;;;;;;;;;5022301;28;20482;-78
2022/02/14 13:35:08;;;;;;;10.53;3.97;;;;;;;;;;5018240;28;20431;-78
2022/02/14 13:37:37;;;;;;;13.23;4.20;;;;;;;;;;5017171;28;20494;-78
2022/02/14 13:40:19;;;;;;;14.60;3.60;;;;;;;;;;5021755;28;20460;-78
2022/02/14 13:42:45;;;;;;;6.13;3.70;;;;;;;;;;5018198;28;20463;-80
2022/02/14 13:45:11;;;;;;;6.25;3.20;;;;;;;;;;5017783;28;20423;-77
2022/02/14 13:47:37;;;;;;;6.70;3.50;;;;;;;;;;5015167;28;20191;-78
2022/02/14 13:50:22;;;;;;;4.73;3.00;;;;;;;;;;5017493;28;20497;-79
2022/02/14 13:52:49;;;;;;;6.17;2.83;;;;;;;;;;5013133;28;20472;-79
2022/02/14 13:55:21;;;;;;;5.77;2.50;;;;;;;;;;5018070;28;20427;-78
2022/02/14 13:57:48;;;;;;;4.63;2.80;;;;;;;;;;5015940;28;20415;-77
2022/02/14 14:00:36;;;;;;;7.37;2.20;;;;;;;;;;5017593;28;20932;-78
2022/02/14 14:03:09;;;;;;;7.10;2.93;;;;;;;;;;5019829;28;20822;-78
2022/02/14 14:05:37;;;;;;;3.53;2.20;;;;;;;;;;5015174;28;20525;-78
2022/02/14 14:08:04;;;;;;;4.37;2.77;;;;;;;;;;5032349;28;21653;-78
2022/02/14 14:10:40;;;;;;;8.83;2.93;;;;;;;;;;5017227;28;20427;-79
2022/02/14 14:13:07;;;;;;;4.93;2.83;;;;;;;;;;5016057;28;20446;-78
2022/02/14 14:15:34;;;;;;;4.10;2.70;;;;;;;;;;5012148;28;20458;-77
2022/02/14 14:18:00;;;;;;;8.53;3.50;;;;;;;;;;5019952;28;20427;-78
2022/02/14 14:20:26;;;;;;;4.30;3.00;;;;;;;;;;5019012;28;20453;-78
2022/02/14 14:22:52;;;;;;;7.23;3.30;;;;;;;;;;5012320;28;20467;-79
2022/02/14 14:25:19;;;;;;;13.50;2.97;;;;;;;;;;5014445;28;20459;-78
2022/02/14 14:27:47;;;;;;;4.23;2.90;;;;;;;;;;5017457;28;20864;-78
2022/02/14 14:30:13;;;;;;;8.30;3.43;;;;;;;;;;5015621;28;20420;-78
2022/02/14 14:32:40;;;;;;;9.20;2.43;;;;;;;;;;5013479;28;21074;-78
2022/02/14 14:35:06;;;;;;;8.63;3.00;;;;;;;;;;5017302;28;20462;-78
2022/02/14 14:37:32;;;;;;;5.27;2.60;;;;;;;;;;5014909;28;20475;-77
2022/02/14 14:39:58;;;;;;;7.30;2.60;;;;;;;;;;5014090;28;20450;-78
2022/02/14 14:42:25;;;;;;;3.50;2.33;;;;;;;;;;5018455;28;20714;-77
2022/02/14 14:44:51;;;;;;;5.93;3.10;;;;;;;;;;5009216;28;20443;-78
2022/02/14 14:47:17;;;;;;;8.20;3.27;;;;;;;;;;5016416;28;20881;-77
2022/02/14 14:49:44;;;;;;;5.63;2.80;;;;;;;;;;5013399;28;20447;-78